Time;durP1;ratioP1;P1;durP2;ratioP2;P2;SDS_P1;SDS_P2;PMS_P1;PMS_P2;Temp;Humidity;BMP_temperature;BMP_pressure;BME280_temperature;BME280_humidity;BME280_pressure;Samples;Min_cycle;Max_cycle;Signal;HPM_P1;HPM_P2
2021/07/06 00:01:57;;;;;;;9.75;8.85;;;;;;;18.20;65.78;99477.50;255152;1104;115543;-66
2021/07/06 00:07:01;;;;;;;10.30;9.35;;;;;;;18.02;66.24;99481.80;255600;1104;115319;-66
2021/07/06 00:12:05;;;;;;;17.38;9.93;;;;;;;17.84;66.45;99481.46;255118;1099;115981;-65
2021/07/06 00:17:09;;;;;;;11.75;10.75;;;;;;;17.70;66.49;99475.18;256121;1104;116375;-66
2021/07/06 00:22:12;;;;;;;10.45;9.55;;;;;;;17.70;66.71;99480.57;255549;1100;116774;-66
2021/07/06 00:27:17;;;;;;;11.50;10.23;;;;;;;17.59;66.51;99483.63;256068;1104;115551;-66
2021/07/06 00:32:20;;;;;;;11.83;10.13;;;;;;;17.46;66.78;99485.10;255663;1104;115897;-67
2021/07/06 00:37:24;;;;;;;11.75;10.43;;;;;;;17.34;66.89;99487.41;254538;1104;116562;-67
2021/07/06 00:42:27;;;;;;;10.95;9.95;;;;;;;17.32;67.15;99490.38;255007;1104;118250;-66
2021/07/06 00:47:36;;;;;;;11.80;10.55;;;;;;;17.28;66.96;99488.53;254187;1104;116493;-66
2021/07/06 00:52:40;;;;;;;13.98;11.50;;;;;;;17.17;67.21;99482.43;254114;1104;116057;-68
2021/07/06 00:57:44;;;;;;;15.33;9.90;;;;;;;17.05;67.11;99487.41;254739;1100;115932;-64
2021/07/06 01:02:50;;;;;;;11.45;10.53;;;;;;;16.82;67.13;99491.63;254583;1099;116100;-66
2021/07/06 01:07:54;;;;;;;16.23;10.38;;;;;;;16.68;67.43;99487.98;254717;1100;116818;-67
2021/07/06 01:12:57;;;;;;;13.20;11.63;;;;;;;16.58;67.99;99485.31;255054;1104;117094;-67
2021/07/06 01:18:16;;;;;;;15.28;11.80;;;;;;;16.63;68.14;99487.98;254477;1104;117794;-67
2021/07/06 01:23:21;;;;;;;11.25;10.15;;;;;;;16.64;67.96;99495.00;254448;1100;116116;-66
2021/07/06 01:28:25;;;;;;;12.73;11.45;;;;;;;16.40;67.97;99495.67;254567;1104;116298;-67
2021/07/06 01:33:31;;;;;;;16.55;13.15;;;;;;;16.24;68.30;99496.83;254861;1104;116489;-66
2021/07/06 01:38:36;;;;;;;16.20;12.75;;;;;;;16.29;68.65;99498.69;254841;1104;116177;-66
2021/07/06 01:43:39;;;;;;;12.70;11.50;;;;;;;16.26;68.80;99502.73;255920;1104;116068;-67
2021/07/06 01:48:43;;;;;;;13.93;12.00;;;;;;;16.23;68.26;99502.48;255559;1104;115461;-67
2021/07/06 01:53:46;;;;;;;13.43;9.55;;;;;;;16.06;68.15;99500.97;257186;1104;115682;-66
2021/07/06 01:58:50;;;;;;;14.03;11.00;;;;;;;15.80;68.27;99504.84;256012;1104;115982;-66
2021/07/06 02:03:52;;;;;;;16.48;12.40;;;;;;;15.67;68.28;99497.34;256643;1104;115604;-68
2021/07/06 02:08:56;;;;;;;15.10;11.13;;;;;;;15.76;69.02;99512.64;256071;1104;115343;-67
2021/07/06 02:14:01;;;;;;;13.33;12.10;;;;;;;15.74;68.84;99506.73;256294;1104;115977;-65
2021/07/06 02:19:04;;;;;;;12.60;11.40;;;;;;;15.60;68.67;99524.50;257151;1103;115296;-68
2021/07/06 02:24:07;;;;;;;15.98;11.90;;;;;;;15.61;69.04;99519.93;256404;1099;115617;-68
2021/07/06 02:29:10;;;;;;;23.55;13.40;;;;;;;15.65;68.96;99529.06;255518;1104;116488;-68
2021/07/06 02:34:12;;;;;;;14.48;12.15;;;;;;;15.59;68.99;99532.86;254282;1104;117261;-68
2021/07/06 02:39:14;;;;;;;18.13;12.50;;;;;;;15.52;69.40;99537.67;255143;1104;116221;-68
2021/07/06 02:44:17;;;;;;;15.30;13.70;;;;;;;15.36;69.02;99539.56;254503;1104;116580;-67
2021/07/06 02:49:20;;;;;;;19.20;14.60;;;;;;;15.20;69.20;99543.35;254619;1104;116511;-66
2021/07/06 02:54:23;;;;;;;15.33;13.73;;;;;;;15.16;69.50;99546.58;255822;1104;212573;-67
2021/07/06 02:59:26;;;;;;;15.43;12.18;;;;;;;15.19;69.72;99555.16;254259;1104;117705;-66
2021/07/06 03:04:29;;;;;;;24.15;12.63;;;;;;;15.18;70.33;99553.55;255127;1104;117428;-66
2021/07/06 03:09:31;;;;;;;15.70;14.28;;;;;;;15.29;70.51;99558.63;254491;1100;116912;-66
2021/07/06 03:14:35;;;;;;;12.80;11.70;;;;;;;15.30;70.43;99552.19;255604;1100;116207;-66
2021/07/06 03:19:38;;;;;;;20.90;12.53;;;;;;;15.26;70.36;99551.14;254514;1100;116514;-66
2021/07/06 03:24:42;;;;;;;17.15;15.38;;;;;;;15.30;70.50;99549.50;254900;1104;116917;-67
2021/07/06 03:29:45;;;;;;;18.20;15.03;;;;;;;15.38;70.68;99542.78;255077;1104;117419;-66
2021/07/06 03:34:49;;;;;;;14.57;13.23;;;;;;;15.42;70.65;99546.55;254913;1104;115527;-67
2021/07/06 03:39:51;;;;;;;19.03;15.05;;;;;;;15.56;70.95;99554.86;254412;1104;116629;-67
2021/07/06 03:44:54;;;;;;;18.63;16.08;;;;;;;15.85;71.13;99563.96;254355;1104;116541;-66
2021/07/06 03:49:57;;;;;;;19.57;16.77;;;;;;;16.22;71.04;99558.16;254624;1104;116115;-66
2021/07/06 03:55:00;;;;;;;20.47;15.30;;;;;;;16.34;71.71;99558.65;255142;1104;117860;-66
2021/07/06 04:00:09;;;;;;;23.43;18.07;;;;;;;16.67;71.33;99570.61;255425;1104;116691;-66
2021/07/06 04:05:14;;;;;;;22.73;18.33;;;;;;;16.83;71.08;99565.91;256051;1104;116957;-66
2021/07/06 04:10:18;;;;;;;17.25;15.60;;;;;;;16.99;71.49;99569.31;254571;1104;118079;-66
2021/07/06 04:15:22;;;;;;;18.48;16.85;;;;;;;17.17;71.84;99569.42;255677;1100;116315;-66
2021/07/06 04:20:26;;;;;;;21.85;18.08;;;;;;;17.59;71.57;99567.18;257289;1104;116913;-66
2021/07/06 04:25:31;;;;;;;20.45;18.48;;;;;;;18.10;71.32;99573.64;256397;1104;115572;-68
2021/07/06 04:30:34;;;;;;;20.23;18.10;;;;;;;19.60;69.93;99570.11;257234;1104;115646;-67
2021/07/06 04:35:38;;;;;;;18.65;16.95;;;;;;;20.18;69.85;99558.70;256825;1104;115696;-67
2021/07/06 04:40:44;;;;;;;18.73;16.28;;;;;;;21.25;67.77;99567.18;256350;1104;115689;-67
2021/07/06 04:45:47;;;;;;;16.23;14.68;;;;;;;24.85;64.27;99569.22;255844;1104;115215;-67
2021/07/06 04:50:51;;;;;;;16.88;15.28;;;;;;;25.72;61.60;99578.19;255158;1104;116096;-66
2021/07/06 04:55:53;;;;;;;21.13;15.15;;;;;;;25.58;61.34;99590.55;255713;1104;116063;-67
2021/07/06 05:00:58;;;;;;;15.20;13.63;;;;;;;25.29;59.77;99592.28;254902;1104;115685;-68
2021/07/06 05:06:02;;;;;;;16.35;14.93;;;;;;;25.10;59.27;99598.22;254164;1104;115816;-70
2021/07/06 05:11:06;;;;;;;16.15;14.55;;;;;;;25.84;58.96;99597.33;254337;1104;115960;-68
2021/07/06 05:16:10;;;;;;;13.58;12.33;;;;;;;29.25;54.02;99611.17;254654;1104;116114;-68
2021/07/06 05:21:16;;;;;;;13.80;11.20;;;;;;;33.06;50.29;99616.61;255080;1104;115682;-68
2021/07/06 05:26:40;;;;;;;9.33;7.43;;;;;;;35.58;45.67;99610.86;254281;1104;116685;-67
2021/07/06 05:31:44;;;;;;;5.72;5.22;;;;;;;37.53;40.60;99623.97;254493;1104;115866;-67
2021/07/06 05:36:50;;;;;;;6.17;5.57;;;;;;;38.98;39.43;99629.81;254599;1104;115932;-68
2021/07/06 05:41:53;;;;;;;5.10;4.80;;;;;;;41.10;37.15;99629.80;254362;1104;115611;-69
2021/07/06 05:46:57;;;;;;;4.70;4.30;;;;;;;42.77;34.44;99636.33;254270;1104;115805;-69
2021/07/06 05:52:02;;;;;;;5.23;4.47;;;;;;;44.16;31.76;99636.52;254360;1104;116015;-68
2021/07/06 05:57:06;;;;;;;5.23;4.83;;;;;;;45.11;29.85;99634.30;254481;1104;117766;-66
2021/07/06 06:02:08;;;;;;;6.20;5.00;;;;;;;45.56;27.65;99635.45;254356;1104;116226;-66
2021/07/06 06:07:12;;;;;;;4.30;4.00;;;;;;;45.92;27.06;99652.13;254553;1104;115646;-67
2021/07/06 06:12:16;;;;;;;8.35;4.08;;;;;;;46.70;25.76;99649.42;255675;1104;116183;-67
2021/07/06 06:17:19;;;;;;;4.20;3.33;;;;;;;47.15;24.79;99646.13;255244;1104;119242;-67
2021/07/06 06:22:25;;;;;;;3.90;3.70;;;;;;;46.95;23.82;99649.63;255923;1099;116429;-67
2021/07/06 06:27:44;;;;;;;4.15;2.98;;;;;;;47.24;23.38;99654.50;256173;1104;116457;-66
2021/07/06 06:32:48;;;;;;;3.13;2.93;;;;;;;47.71;22.44;99646.23;257122;1104;116692;-67
2021/07/06 06:37:51;;;;;;;2.28;2.13;;;;;;;47.11;21.80;99651.19;255367;1104;115963;-67
2021/07/06 06:42:54;;;;;;;4.10;2.40;;;;;;;46.85;22.26;99659.44;256364;1104;117600;-67
2021/07/06 06:47:59;;;;;;;3.83;2.50;;;;;;;47.05;21.00;99658.00;255377;1104;116814;-66
2021/07/06 06:53:02;;;;;;;2.13;1.97;;;;;;;47.26;21.44;99657.62;255153;1104;116198;-67
2021/07/06 06:58:05;;;;;;;1.90;1.80;;;;;;;46.83;20.26;99661.97;254764;1104;116045;-66
2021/07/06 07:03:11;;;;;;;2.17;2.07;;;;;;;46.08;20.93;99655.82;256284;1104;115985;-65
2021/07/06 07:08:14;;;;;;;1.80;1.70;;;;;;;45.42;20.42;99659.40;254445;1104;115627;-66
2021/07/06 07:13:17;;;;;;;2.75;2.55;;;;;;;45.12;21.39;99651.97;255033;1099;115376;-66
2021/07/06 07:18:22;;;;;;;1.55;1.50;;;;;;;45.38;21.17;99652.38;255084;1104;116093;-67
2021/07/06 07:23:25;;;;;;;2.03;1.80;;;;;;;44.62;20.46;99645.78;255318;1104;115890;-67
2021/07/06 07:28:30;;;;;;;0.90;0.90;;;;;;;43.74;21.33;99655.90;254927;1104;116029;-67
2021/07/06 07:33:33;;;;;;;1.63;1.53;;;;;;;42.65;21.53;99648.38;254049;1104;115751;-66
2021/07/06 07:38:37;;;;;;;4.60;1.98;;;;;;;41.12;22.12;99646.91;254798;1104;116789;-66
2021/07/06 07:43:41;;;;;;;1.48;1.38;;;;;;;40.42;23.59;99631.67;255147;1104;116229;-66
2021/07/06 07:48:46;;;;;;;2.00;0.93;;;;;;;39.88;24.53;99631.42;255182;1104;117209;-65
2021/07/06 07:53:53;;;;;;;1.28;1.25;;;;;;;38.82;25.00;99640.13;254075;1104;116758;-68
2021/07/06 07:58:57;;;;;;;1.18;1.08;;;;;;;38.46;25.83;99626.05;254030;1104;116244;-68
2021/07/06 08:04:00;;;;;;;0.75;0.75;;;;;;;38.29;26.00;99645.43;254291;1104;116722;-68
2021/07/06 08:09:05;;;;;;;0.90;0.90;;;;;;;37.17;25.45;99641.11;254258;1104;117488;-67
2021/07/06 08:14:08;;;;;;;0.65;0.65;;;;;;;36.48;26.85;99647.03;255289;1104;115882;-68
2021/07/06 08:19:11;;;;;;;0.93;0.93;;;;;;;36.05;27.62;99636.31;257471;1104;116770;-65
2021/07/06 08:24:15;;;;;;;1.55;1.10;;;;;;;36.18;27.64;99637.37;257066;1104;115827;-66
2021/07/06 08:29:19;;;;;;;0.93;0.93;;;;;;;35.82;27.90;99628.55;257466;1104;117163;-67
2021/07/06 08:34:23;;;;;;;1.50;1.40;;;;;;;35.32;27.97;99625.28;257309;1104;115975;-65
2021/07/06 08:39:26;;;;;;;0.63;0.63;;;;;;;35.20;28.09;99628.48;256905;1104;116352;-68
2021/07/06 08:44:29;;;;;;;1.23;0.87;;;;;;;35.06;29.41;99635.67;254420;1104;116905;-68
2021/07/06 08:49:34;;;;;;;0.95;0.95;;;;;;;34.91;29.22;99633.34;254881;1104;116332;-68
2021/07/06 08:54:37;;;;;;;0.85;0.85;;;;;;;34.90;29.97;99638.09;255324;1104;115353;-68
2021/07/06 08:59:42;;;;;;;1.30;1.20;;;;;;;34.75;30.07;99636.55;254906;1104;115952;-68
2021/07/06 09:04:51;;;;;;;5.80;1.83;;;;;;;34.74;30.84;99632.98;254970;1104;116993;-67
2021/07/06 09:10:11;;;;;;;2.70;1.63;;;;;;;34.13;30.21;99639.78;254178;1104;116587;-68
2021/07/06 09:15:33;;;;;;;1.75;1.35;;;;;;;33.89;31.24;99640.57;254185;1104;117017;-67
2021/07/06 09:20:38;;;;;;;1.48;1.38;;;;;;;33.87;31.48;99642.94;254177;1104;115789;-67
2021/07/06 09:25:42;;;;;;;1.38;1.38;;;;;;;33.75;30.96;99638.53;254963;1104;115463;-67
2021/07/06 09:30:44;;;;;;;6.50;1.40;;;;;;;33.57;31.22;99634.97;254504;1104;115462;-67
2021/07/06 09:35:49;;;;;;;1.28;1.20;;;;;;;33.67;31.90;99637.73;255524;1104;115204;-67
2021/07/06 09:40:56;;;;;;;1.75;1.65;;;;;;;33.24;31.54;99620.24;255399;1104;115568;-68
2021/07/06 09:46:08;;;;;;;;;;;;;;;33.25;31.60;99623.80;254462;1104;115720;-68
2021/07/06 09:51:17;;;;;;;1.05;0.78;;;;;;;33.38;32.08;99619.50;256704;1104;103048;-67
2021/07/06 09:56:24;;;;;;;1.08;0.98;;;;;;;33.40;31.89;99623.47;254005;1104;116189;-68
2021/07/06 10:01:28;;;;;;;1.00;1.00;;;;;;;33.36;31.71;99627.39;254516;1104;115293;-68
2021/07/06 10:06:34;;;;;;;1.20;1.20;;;;;;;33.25;32.33;99616.30;254431;1104;116190;-68
2021/07/06 10:11:38;;;;;;;1.28;1.23;;;;;;;33.27;32.69;99608.45;255450;1104;115407;-67
2021/07/06 10:16:43;;;;;;;1.98;1.35;;;;;;;33.52;32.30;99597.45;255266;1104;115943;-66
2021/07/06 10:21:48;;;;;;;2.60;1.10;;;;;;;33.77;32.29;99601.02;254589;1100;115601;-68
2021/07/06 10:26:58;;;;;;;1.03;0.93;;;;;;;33.71;31.60;99597.06;254149;1104;116340;-69
2021/07/06 10:32:04;;;;;;;0.93;0.93;;;;;;;33.63;31.95;99594.70;256633;1104;115494;-68
2021/07/06 10:37:29;;;;;;;3.50;1.43;;;;;;;33.71;31.66;99596.27;257330;1104;115530;-67
2021/07/06 10:42:40;;;;;;;1.25;0.90;;;;;;;33.85;31.81;99581.70;257229;1104;116726;-67
2021/07/06 10:47:54;;;;;;;1.38;1.20;;;;;;;33.94;31.34;99582.88;257032;1104;116081;-69
2021/07/06 10:53:15;;;;;;;1.65;0.95;;;;;;;34.09;31.27;99578.92;257073;1104;116267;-68
2021/07/06 10:58:58;;;;;;;2.45;1.38;;;;;;;33.93;31.88;99573.02;256989;1104;116267;-68
2021/07/06 11:04:01;;;;;;;1.00;1.00;;;;;;;33.59;32.05;99582.85;256923;1104;116520;-67
2021/07/06 11:09:04;;;;;;;1.10;1.10;;;;;;;33.53;31.71;99567.84;255195;1103;115516;-67
2021/07/06 11:14:17;;;;;;;1.10;1.10;;;;;;;33.69;31.70;99574.55;254283;1104;116103;-67
2021/07/06 11:19:37;;;;;;;1.30;1.20;;;;;;;33.14;30.82;99580.35;255434;1104;116254;-68
2021/07/06 11:25:17;;;;;;;1.60;1.50;;;;;;;32.33;31.57;99569.71;254376;1104;116054;-67
2021/07/06 11:30:32;;;;;;;1.18;1.18;;;;;;;31.96;32.63;99561.54;255000;1104;115463;-68
2021/07/06 11:35:53;;;;;;;1.88;1.70;;;;;;;31.93;33.20;99554.03;254062;1104;116194;-68
2021/07/06 11:41:02;;;;;;;1.13;1.13;;;;;;;32.21;33.92;99558.98;254034;1104;115629;-67
2021/07/06 11:46:07;;;;;;;1.08;1.08;;;;;;;32.45;33.38;99550.06;255218;1104;115257;-68
2021/07/06 11:51:12;;;;;;;1.30;1.20;;;;;;;32.58;32.65;99553.28;254252;1100;115462;-68
2021/07/06 11:56:23;;;;;;;2.10;1.37;;;;;;;32.75;32.14;99544.31;254606;1104;115522;-66
2021/07/06 12:01:27;;;;;;;1.93;1.83;;;;;;;32.73;32.18;99538.36;254293;1104;115587;-69
2021/07/06 12:06:31;;;;;;;1.90;1.38;;;;;;;32.65;32.04;99534.01;255402;1104;116373;-68
2021/07/06 12:11:34;;;;;;;1.73;1.45;;;;;;;32.90;33.09;99525.84;254808;1104;116900;-68
2021/07/06 12:16:38;;;;;;;1.93;1.93;;;;;;;32.53;32.73;99525.27;255022;1099;116333;-67
2021/07/06 12:21:46;;;;;;;1.48;1.38;;;;;;;32.40;33.09;99511.83;254570;1104;117448;-66
2021/07/06 12:26:53;;;;;;;2.55;1.80;;;;;;;32.40;32.84;99502.76;255417;1098;115573;-68
2021/07/06 12:31:57;;;;;;;1.88;1.78;;;;;;;31.88;32.65;99510.28;254827;1100;116076;-69
2021/07/06 12:37:00;;;;;;;;;;;;;;;31.58;34.17;99501.35;254667;1104;115406;-68
2021/07/06 12:42:19;;;;;;;3.43;1.80;;;;;;;31.78;34.22;99503.53;257233;1104;102991;-68
2021/07/06 12:47:39;;;;;;;2.68;2.48;;;;;;;31.93;33.71;99493.38;256885;1104;115915;-70
2021/07/06 12:52:53;;;;;;;2.13;2.00;;;;;;;32.08;34.10;99492.31;257241;1104;114599;-71
2021/07/06 12:58:02;;;;;;;1.83;1.73;;;;;;;31.88;33.78;99492.95;255028;1104;115635;-68
2021/07/06 13:03:20;;;;;;;2.15;2.05;;;;;;;31.31;33.83;99496.02;254191;1104;115400;-70
2021/07/06 13:08:33;;;;;;;5.68;2.15;;;;;;;31.53;35.45;99494.23;256555;1104;116051;-70
2021/07/06 13:13:36;;;;;;;2.48;2.28;;;;;;;31.81;34.89;99491.72;254547;1104;115826;-68
2021/07/06 13:18:41;;;;;;;2.28;2.18;;;;;;;32.01;34.34;99485.95;254596;1104;116743;-69
2021/07/06 13:23:46;;;;;;;4.78;2.18;;;;;;;32.14;33.58;99485.23;254800;1099;115670;-68
2021/07/06 13:28:49;;;;;;;;;;;;;;;32.29;34.06;99480.63;254179;1104;116148;-69
2021/07/06 13:33:53;;;;;;;1.98;1.88;;;;;;;32.30;33.74;99473.14;255095;1104;104649;-70
2021/07/06 13:39:07;;;;;;;2.13;2.03;;;;;;;32.38;33.77;99478.31;255058;1104;116201;-70
2021/07/06 13:44:10;;;;;;;2.93;2.80;;;;;;;31.88;34.32;99465.38;254231;1100;115920;-68
2021/07/06 13:49:16;;;;;;;2.48;2.38;;;;;;;31.47;35.13;99474.53;254357;1104;117260;-67
2021/07/06 13:54:24;;;;;;;3.90;2.55;;;;;;;31.64;34.76;99464.80;254427;1104;116156;-68
2021/07/06 13:59:28;;;;;;;2.48;2.35;;;;;;;31.95;34.12;99463.47;255157;1104;115194;-68
2021/07/06 14:04:34;;;;;;;3.63;3.33;;;;;;;32.07;33.09;99456.85;254113;1104;115598;-70
2021/07/06 14:09:37;;;;;;;3.30;3.10;;;;;;;32.13;33.17;99449.77;254092;1099;115633;-70
2021/07/06 14:14:40;;;;;;;5.00;4.55;;;;;;;32.33;33.09;99453.06;253943;1104;116062;-70
2021/07/06 14:19:43;;;;;;;3.83;3.53;;;;;;;32.24;33.86;99449.86;253968;1104;115795;-71
2021/07/06 14:24:55;;;;;;;3.30;3.10;;;;;;;31.90;33.89;99449.25;254495;1104;115679;-70
2021/07/06 14:29:58;;;;;;;2.78;2.68;;;;;;;31.42;34.45;99452.84;253865;1099;117510;-69
2021/07/06 14:35:01;;;;;;;4.35;3.35;;;;;;;31.08;34.77;99454.86;254359;1104;116337;-68
2021/07/06 14:40:06;;;;;;;3.60;3.30;;;;;;;30.89;34.36;99448.75;253951;1104;115281;-68
2021/07/06 14:45:09;;;;;;;3.38;3.15;;;;;;;30.90;35.35;99448.38;257081;1104;115505;-69
2021/07/06 14:50:15;;;;;;;9.88;3.40;;;;;;;31.10;35.07;99438.77;256838;1104;115300;-69
2021/07/06 14:55:20;;;;;;;3.43;3.13;;;;;;;31.20;34.59;99447.50;257237;1104;115258;-69
2021/07/06 15:00:24;;;;;;;5.90;3.40;;;;;;;31.28;34.66;99435.39;255404;1104;116087;-69
2021/07/06 15:05:28;;;;;;;3.48;3.20;;;;;;;31.33;34.78;99435.84;255390;1104;115481;-69
2021/07/06 15:10:31;;;;;;;2.93;2.73;;;;;;;31.26;34.98;99432.22;257091;1104;115363;-69
2021/07/06 15:15:34;;;;;;;3.85;3.55;;;;;;;31.17;34.40;99431.77;255873;1104;115829;-69
2021/07/06 15:20:52;;;;;;;3.53;3.25;;;;;;;30.97;34.50;99436.66;255584;1100;116987;-69
2021/07/06 15:25:56;;;;;;;3.23;3.03;;;;;;;30.87;35.23;99440.91;254465;1104;115692;-69
2021/07/06 15:30:59;;;;;;;5.93;4.05;;;;;;;30.79;35.44;99425.48;254255;1098;116079;-70
2021/07/06 15:36:03;;;;;;;3.83;3.53;;;;;;;30.89;35.27;99424.77;254854;1104;115897;-70
2021/07/06 15:41:06;;;;;;;4.30;3.45;;;;;;;30.94;35.16;99429.14;254995;1104;115440;-71
2021/07/06 15:46:09;;;;;;;4.58;3.70;;;;;;;30.80;34.96;99430.61;255619;1104;115038;-68
2021/07/06 15:51:12;;;;;;;4.45;4.05;;;;;;;30.76;34.93;99428.98;254334;1104;116223;-68
2021/07/06 15:56:15;;;;;;;3.70;3.50;;;;;;;30.69;35.10;99435.20;255662;1104;115488;-68
2021/07/06 16:01:17;;;;;;;3.83;3.63;;;;;;;30.57;34.71;99421.72;255200;1104;115830;-67
2021/07/06 16:06:21;;;;;;;4.80;4.00;;;;;;;30.57;35.41;99427.22;254149;1104;115704;-67
2021/07/06 16:11:24;;;;;;;3.58;3.28;;;;;;;30.64;35.92;99429.23;254674;1104;115629;-68
2021/07/06 16:16:27;;;;;;;3.93;3.63;;;;;;;30.58;35.76;99430.73;254130;1104;116029;-67
2021/07/06 16:21:32;;;;;;;3.85;3.60;;;;;;;30.54;35.38;99432.64;254921;1104;115684;-67
2021/07/06 16:26:36;;;;;;;4.58;4.18;;;;;;;30.45;35.43;99436.47;254072;1100;115164;-67
2021/07/06 16:31:40;;;;;;;7.90;3.95;;;;;;;30.27;35.43;99437.43;255095;1104;115888;-67
2021/07/06 16:36:44;;;;;;;4.38;3.68;;;;;;;30.13;36.51;99443.53;256637;1103;115326;-68
2021/07/06 16:41:47;;;;;;;5.38;4.93;;;;;;;29.93;36.89;99433.80;257255;1104;116218;-67
2021/07/06 16:46:50;;;;;;;10.80;4.83;;;;;;;29.79;37.02;99443.42;257116;1104;115913;-69
2021/07/06 18:07:13;;;;;;;5.05;4.65;;;;;;;26.66;47.10;99479.63;254129;1099;115723;-67
2021/07/06 18:12:17;;;;;;;9.13;5.03;;;;;;;26.48;48.53;99487.34;255911;1104;115214;-67
2021/07/06 18:17:19;;;;;;;6.35;5.75;;;;;;;26.35;49.03;99487.70;254425;1104;115881;-66
2021/07/06 18:22:23;;;;;;;7.65;5.48;;;;;;;26.24;49.89;99489.31;254537;1104;117116;-66
2021/07/06 18:27:29;;;;;;;7.93;5.43;;;;;;;26.11;49.68;99493.98;254610;1099;116169;-67
2021/07/06 18:32:32;;;;;;;4.80;4.40;;;;;;;25.97;49.93;99496.30;254210;1104;116314;-66
2021/07/06 18:37:35;;;;;;;4.48;4.18;;;;;;;25.81;50.68;99494.25;255016;1100;116680;-67
2021/07/06 18:42:40;;;;;;;6.03;5.45;;;;;;;25.67;50.70;99501.20;254270;1099;117262;-66
2021/07/06 18:47:44;;;;;;;10.05;5.53;;;;;;;25.49;51.03;99495.91;256111;1104;116064;-67
2021/07/06 18:53:08;;;;;;;5.25;4.85;;;;;;;25.35;51.70;99497.38;256445;1104;115559;-66
2021/07/06 18:58:11;;;;;;;4.63;4.05;;;;;;;25.21;51.96;99510.52;257041;1104;115559;-67
2021/07/06 19:03:14;;;;;;;6.55;4.53;;;;;;;25.06;52.83;99512.77;257003;1104;115047;-67
2021/07/06 19:08:17;;;;;;;5.80;5.30;;;;;;;24.90;52.94;99513.69;256424;1104;115660;-67
2021/07/06 19:13:22;;;;;;;9.25;4.80;;;;;;;24.71;52.89;99522.37;257347;1104;116361;-65
2021/07/06 19:18:25;;;;;;;5.20;4.75;;;;;;;24.53;53.13;99529.87;256384;1104;116638;-66
2021/07/06 19:28:54;;;;;;;5.30;4.90;;;;;;;24.10;53.84;99536.39;255787;1104;115518;-66
2021/07/06 19:33:59;;;;;;;11.48;4.83;;;;;;;23.95;54.31;99544.30;256487;1104;115035;-67
2021/07/06 19:39:05;;;;;;;6.23;5.63;;;;;;;23.77;54.87;99538.95;254598;1104;116475;-66
2021/07/06 19:44:10;;;;;;;7.10;4.88;;;;;;;23.64;55.17;99539.16;254090;1104;115512;-66
2021/07/06 19:49:14;;;;;;;6.95;5.65;;;;;;;23.47;55.09;99545.44;255363;1104;115029;-66
2021/07/06 19:54:20;;;;;;;9.20;7.85;;;;;;;23.21;55.53;99541.98;254484;1104;117298;-67
2021/07/06 19:59:24;;;;;;;17.38;8.53;;;;;;;23.13;56.69;99546.31;254687;1104;116200;-66
2021/07/06 20:04:29;;;;;;;14.43;8.73;;;;;;;23.06;56.90;99548.71;254410;1104;116263;-66
2021/07/06 20:09:32;;;;;;;;;;;;;;;22.95;57.16;99545.52;254732;1104;116332;-66
2021/07/06 20:14:36;;;;;;;9.05;6.70;;;;;;;22.82;57.32;99544.58;255967;1104;103447;-64
2021/07/06 20:19:39;;;;;;;12.03;6.60;;;;;;;22.74;57.47;99544.55;254246;1104;115973;-66
2021/07/06 20:24:43;;;;;;;8.13;7.33;;;;;;;22.51;57.69;99546.62;254140;1104;116960;-66
2021/07/06 20:29:47;;;;;;;15.40;6.48;;;;;;;22.32;57.95;99555.03;255091;1099;117210;-65
2021/07/06 20:34:52;;;;;;;8.40;6.20;;;;;;;22.24;58.10;99555.84;254507;1098;115878;-66
2021/07/06 20:39:55;;;;;;;12.25;7.30;;;;;;;21.98;57.87;99547.60;254679;1104;115883;-66
2021/07/06 20:44:59;;;;;;;9.03;7.10;;;;;;;21.80;58.68;99546.72;256051;1104;114838;-66
2021/07/06 20:50:05;;;;;;;9.73;6.43;;;;;;;21.81;59.26;99545.61;256162;1100;116157;-64
2021/07/06 20:55:09;;;;;;;11.20;6.83;;;;;;;21.76;59.55;99553.89;255590;1104;117949;-65
2021/07/06 21:00:13;;;;;;;11.25;7.15;;;;;;;21.57;59.16;99547.91;255965;1104;117592;-64
2021/07/06 21:05:17;;;;;;;18.88;7.60;;;;;;;21.46;59.67;99547.36;256255;1104;117344;-66
2021/07/06 21:10:22;;;;;;;13.63;7.88;;;;;;;21.42;59.97;99548.29;256656;1104;116239;-67
2021/07/06 21:15:26;;;;;;;8.50;7.50;;;;;;;21.36;60.49;99549.56;257119;1104;116954;-67
2021/07/06 21:20:31;;;;;;;9.33;8.30;;;;;;;21.35;60.61;99553.38;255330;1104;115267;-66
2021/07/06 21:25:35;;;;;;;8.73;7.10;;;;;;;21.31;60.61;99557.81;255472;1104;116052;-67
2021/07/06 21:30:39;;;;;;;13.75;6.98;;;;;;;21.19;60.82;99559.14;255716;1104;115551;-67
2021/07/06 21:35:43;;;;;;;16.87;8.10;;;;;;;21.11;60.87;99564.49;256006;1104;116284;-67
2021/07/06 21:40:47;;;;;;;8.70;7.58;;;;;;;21.02;61.09;99560.94;254615;1104;115387;-66
2021/07/06 21:45:50;;;;;;;10.15;8.00;;;;;;;21.02;61.47;99567.16;254481;1104;115767;-65
2021/07/06 21:50:53;;;;;;;9.03;8.15;;;;;;;21.09;61.64;99572.16;254880;1099;116542;-65
2021/07/06 21:55:56;;;;;;;9.30;7.43;;;;;;;21.14;61.71;99563.88;254607;1104;137175;-65
2021/07/06 22:01:00;;;;;;;10.08;8.45;;;;;;;21.14;61.79;99564.68;255338;1104;114837;-66
2021/07/06 22:06:04;;;;;;;9.68;8.85;;;;;;;21.18;61.83;99560.25;254191;1104;116484;-65
2021/07/06 22:11:08;;;;;;;10.03;9.13;;;;;;;21.23;61.74;99562.06;255671;1104;114808;-66
2021/07/06 22:16:11;;;;;;;15.95;8.95;;;;;;;21.32;61.78;99564.84;254583;1104;115050;-64
2021/07/06 22:21:17;;;;;;;9.45;8.60;;;;;;;21.38;61.94;99558.98;254189;1104;115376;-66
2021/07/06 22:26:20;;;;;;;11.08;10.08;;;;;;;21.40;61.98;99561.39;255021;1099;115828;-65
2021/07/06 22:31:24;;;;;;;10.30;9.40;;;;;;;21.40;61.81;99575.72;254541;1104;116339;-65
2021/07/06 22:36:28;;;;;;;10.93;10.00;;;;;;;21.38;61.81;99564.41;255109;1100;115798;-66
2021/07/06 22:41:32;;;;;;;10.15;9.25;;;;;;;21.35;61.80;99561.52;255195;1104;115290;-66
2021/07/06 22:46:35;;;;;;;9.70;8.80;;;;;;;21.34;61.68;99560.71;254635;1104;116075;-65
2021/07/06 22:51:39;;;;;;;10.85;9.75;;;;;;;21.37;62.11;99562.80;254805;1100;116054;-65
2021/07/06 22:56:43;;;;;;;9.98;9.00;;;;;;;21.34;62.68;99566.13;256199;1098;115661;-65
2021/07/06 23:01:47;;;;;;;13.75;9.80;;;;;;;21.30;61.99;99562.44;257160;1104;115749;-65
2021/07/06 23:06:51;;;;;;;14.33;11.23;;;;;;;21.26;62.15;99571.49;257215;1104;115841;-66
2021/07/06 23:11:54;;;;;;;13.03;9.90;;;;;;;21.21;61.87;99580.55;256733;1104;117020;-65
2021/07/06 23:17:02;;;;;;;10.75;9.08;;;;;;;21.18;61.97;99591.97;257113;1104;115346;-64
2021/07/06 23:22:07;;;;;;;9.98;9.08;;;;;;;21.17;62.26;99591.17;257065;1104;115985;-65
2021/07/06 23:27:14;;;;;;;17.95;11.03;;;;;;;21.21;62.18;99596.02;256774;1099;115235;-65
2021/07/06 23:32:17;;;;;;;10.95;9.30;;;;;;;21.19;61.93;99594.38;254391;1104;115270;-66
2021/07/06 23:37:21;;;;;;;11.65;9.88;;;;;;;21.16;62.00;99597.70;255065;1104;116338;-66
2021/07/06 23:42:26;;;;;;;10.67;9.50;;;;;;;21.15;62.29;99592.59;254173;1104;115505;-66
2021/07/06 23:47:30;;;;;;;12.65;11.48;;;;;;;21.14;62.13;99596.41;255451;1104;116928;-65
2021/07/06 23:52:34;;;;;;;12.85;9.98;;;;;;;21.14;62.15;99589.08;255102;1104;116070;-65
2021/07/06 23:57:38;;;;;;;13.93;11.48;;;;;;;21.11;62.49;99602.44;254506;1104;115440;-66
